Terminal Aerodrome Forecast
Issued by NWS

Home | Current Version | Previous Version | Text Only | Print | Product List | Glossary On
Versions: 1 2 3 4 5 6 7 8 9 10 11 12 13 14 15 16 17 18 19 20 21
000
FTUS43 KLSX 241100 RRA
TAFUIN
TAF
KUIN 241141Z 2412/2512 28015G25KT P6SM SCT008 OVC018
     FM241500 27020G30KT P6SM VCSH BKN020 OVC040
     FM242300 27014KT P6SM SCT025 OVC040=

USA.gov is the U.S. government's official web portal to all federal, state and local government web resources and services.